Terminal Aerodrome Forecast
Issued by NWS

Home | Current Version | Previous Version | Text Only | Print | Product List | Glossary On
Versions: 1 2 3 4 5 6 7 8 9 10 11 12
159
FTUS43 KMQT 021722
TAFSAW
TAF
KSAW 021722Z 0218/0318 03012KT P6SM SCT200
     FM030100 09004KT P6SM SCT200
     FM031200 24006KT P6SM SCT150
     FM031600 24012G18KT P6SM OVC120=

USA.gov is the U.S. government's official web portal to all federal, state and local government web resources and services.